Time;durP1;ratioP1;P1;durP2;ratioP2;P2;SDS_P1;SDS_P2;PMS_P1;PMS_P2;Temp;Humidity;BMP_temperature;BMP_pressure;BME280_temperature;BME280_humidity;BME280_pressure;Samples;Min_cycle;Max_cycle;Signal;HPM_P1;HPM_P2
2022/06/21 00:01:43;;;;;;;2.33;2.10;;;16.10;99.90;;;16.74;67.62;97884.22;5219992;28;20259;-60
2022/06/21 00:04:17;;;;;;;2.33;1.80;;;16.00;99.90;;;16.71;68.10;97879.84;5211878;28;20205;-59
2022/06/21 00:06:50;;;;;;;1.70;1.60;;;16.00;99.90;;;16.62;67.75;97872.66;5217692;28;20198;-60
2022/06/21 00:09:23;;;;;;;2.28;2.00;;;15.90;99.90;;;16.59;69.56;97882.88;5217048;28;20849;-60
2022/06/21 00:11:58;;;;;;;2.30;2.10;;;15.90;99.90;;;16.65;70.04;97883.13;5212844;28;20608;-60
2022/06/21 00:14:31;;;;;;;2.88;2.08;;;15.90;99.90;;;16.70;69.64;97879.78;5215620;28;20197;-60
2022/06/21 00:17:05;;;;;;;3.40;2.00;;;16.00;99.90;;;16.56;68.75;97885.34;5220399;28;20247;-59
2022/06/21 00:19:41;;;;;;;2.08;1.92;;;15.90;99.90;;;16.51;68.54;97886.03;5218750;28;20248;-58
2022/06/21 00:22:18;;;;;;;2.38;2.22;;;15.80;99.90;;;16.52;70.18;97888.66;5217707;28;20705;-60
2022/06/21 00:24:51;;;;;;;2.42;2.20;;;15.80;99.90;;;16.59;70.84;97892.34;5223952;28;20251;-59
2022/06/21 00:27:26;;;;;;;2.20;2.03;;;15.90;99.90;;;16.63;70.16;97886.47;5219770;28;20267;-60
2022/06/21 00:29:59;;;;;;;3.38;2.00;;;15.90;99.90;;;16.64;70.03;97894.25;5218837;28;20246;-60
2022/06/21 00:32:32;;;;;;;2.17;2.08;;;15.90;99.90;;;16.58;70.22;97883.72;5222680;28;20197;-59
2022/06/21 00:35:11;;;;;;;2.08;1.95;;;15.90;99.90;;;16.59;69.47;97885.47;5214952;28;20197;-59
2022/06/21 00:37:45;;;;;;;2.30;2.00;;;15.90;99.90;;;16.58;70.93;97885.44;5222648;28;20674;-60
2022/06/21 00:40:25;;;;;;;2.25;2.10;;;15.90;99.90;;;16.53;69.81;97881.81;5213501;28;20227;-58
2022/06/21 00:43:04;;;;;;;1.98;1.88;;;15.80;99.90;;;16.52;69.72;97880.94;5220764;28;20224;-60
2022/06/21 00:45:41;;;;;;;2.10;2.00;;;15.80;99.90;;;16.48;70.29;97875.59;5225024;28;20189;-60
2022/06/21 00:48:18;;;;;;;2.25;2.00;;;15.80;99.90;;;16.47;69.98;97882.47;5215498;28;20698;-60
2022/06/21 00:50:56;;;;;;;2.20;2.05;;;15.80;99.90;;;16.54;69.27;97881.88;5219653;28;20229;-60
2022/06/21 00:53:35;;;;;;;2.08;1.85;;;15.80;99.90;;;16.51;69.23;97880.88;5219025;28;20200;-60
2022/06/21 00:56:24;;;;;;;2.03;1.90;;;15.90;99.90;;;16.53;69.68;97889.53;5217775;28;20670;-60
2022/06/21 00:58:58;;;;;;;2.38;2.20;;;15.90;99.90;;;16.53;69.31;97880.09;5222415;28;20225;-60
2022/06/21 01:01:34;;;;;;;2.15;2.00;;;15.80;99.90;;;16.59;68.01;97880.31;5217816;28;20197;-60
2022/06/21 01:04:20;;;;;;;2.10;2.00;;;15.90;99.90;;;16.61;66.16;97870.91;5218901;28;20671;-61
2022/06/21 01:06:59;;;;;;;2.63;2.10;;;15.90;99.90;;;16.52;65.38;97873.19;5213437;28;20205;-60
2022/06/21 01:09:37;;;;;;;2.20;2.00;;;15.70;99.90;;;16.47;65.67;97869.56;5214767;28;20268;-60
2022/06/21 01:12:15;;;;;;;2.00;1.90;;;15.70;99.90;;;16.43;64.94;97862.56;5212774;28;20190;-60
2022/06/21 01:14:56;;;;;;;2.40;2.20;;;15.60;99.90;;;16.38;66.13;97856.38;5223958;28;20298;-60
2022/06/21 01:17:30;;;;;;;2.15;2.00;;;15.70;99.90;;;16.33;64.74;97866.50;5218342;28;20615;-61
2022/06/21 01:20:09;;;;;;;3.15;2.33;;;15.60;99.90;;;16.14;63.86;97866.72;5213800;28;20240;-60
2022/06/21 01:22:53;;;;;;;2.85;2.30;;;15.50;99.90;;;16.12;65.26;97860.63;5219028;28;20216;-61
2022/06/21 01:25:42;;;;;;;2.53;2.35;;;15.50;99.90;;;16.19;65.49;97855.72;5215984;28;20262;-61
2022/06/21 01:28:17;;;;;;;2.45;2.30;;;15.50;99.90;;;16.18;66.85;97850.53;5220034;28;20279;-60
2022/06/21 01:30:53;;;;;;;2.13;2.03;;;15.60;99.90;;;16.20;67.04;97844.59;5220760;28;20209;-59
2022/06/21 01:33:31;;;;;;;2.53;2.22;;;15.70;99.90;;;16.27;67.20;97847.38;5211723;28;20285;-59
2022/06/21 01:36:10;;;;;;;2.80;2.28;;;15.80;99.90;;;16.29;66.30;97843.16;5220067;28;20193;-60
2022/06/21 01:38:48;;;;;;;2.72;2.53;;;15.60;99.90;;;16.22;63.45;97831.72;5218817;28;20286;-59
2022/06/21 01:41:28;;;;;;;2.20;2.10;;;15.50;99.90;;;16.25;65.25;97836.13;5219230;28;20196;-59
2022/06/21 01:44:09;;;;;;;2.30;2.10;;;15.60;99.90;;;16.35;67.04;97843.38;5219563;28;20197;-60
2022/06/21 01:46:42;;;;;;;2.33;2.13;;;15.80;99.90;;;16.32;67.59;97843.25;5217876;28;20285;-60
2022/06/21 01:49:22;;;;;;;2.53;2.33;;;15.80;99.90;;;16.24;67.23;97842.13;5217892;28;20213;-60
2022/06/21 01:51:59;;;;;;;2.10;2.00;;;15.60;99.90;;;16.15;67.55;97840.09;5221055;28;20232;-58
2022/06/21 01:54:38;;;;;;;2.17;2.00;;;15.40;99.90;;;16.10;68.27;97846.78;5212103;28;20324;-60
2022/06/21 01:57:14;;;;;;;2.70;2.50;;;15.50;99.90;;;16.03;65.95;97830.25;5223708;28;20196;-60
2022/06/21 01:59:51;;;;;;;2.63;2.42;;;15.30;99.90;;;15.88;65.36;97821.94;5219621;28;20253;-60
2022/06/21 02:02:30;;;;;;;2.45;2.35;;;15.20;99.90;;;15.76;66.45;97823.25;5214311;28;20201;-59
2022/06/21 02:05:10;;;;;;;3.15;2.78;;;15.10;99.90;;;15.88;69.00;97819.38;5210610;28;20288;-60
2022/06/21 02:07:47;;;;;;;2.88;2.65;;;15.20;99.90;;;15.91;68.08;97806.59;5212965;28;20276;-59
2022/06/21 02:10:26;;;;;;;2.63;2.42;;;15.30;99.90;;;15.77;67.66;97795.81;5217070;28;20304;-60
2022/06/21 02:13:05;;;;;;;3.75;2.45;;;15.20;99.90;;;15.90;68.09;97789.38;5219630;28;20229;-60
2022/06/21 02:15:45;;;;;;;2.72;2.53;;;15.20;99.90;;;15.84;67.94;97781.44;5210716;28;20228;-59
2022/06/21 02:18:21;;;;;;;2.78;2.63;;;15.20;99.90;;;15.90;68.51;97782.50;5218666;28;20743;-60
2022/06/21 02:20:58;;;;;;;2.90;2.47;;;15.30;99.90;;;15.88;66.99;97775.53;5215276;28;20542;-60
2022/06/21 02:23:31;;;;;;;3.45;2.60;;;15.20;99.90;;;15.82;67.71;97780.50;5215404;28;20240;-59
2022/06/21 02:26:04;;;;;;;2.72;2.53;;;15.10;99.90;;;15.76;69.92;97782.03;5219487;28;20205;-60
2022/06/21 02:28:38;;;;;;;3.28;2.70;;;15.10;99.90;;;15.68;68.77;97788.63;5221554;28;20241;-60
2022/06/21 02:31:13;;;;;;;2.75;2.40;;;15.10;99.90;;;15.74;68.96;97790.56;5216710;28;20236;-60
2022/06/21 02:33:48;;;;;;;2.90;2.70;;;15.10;99.90;;;15.76;69.61;97794.91;5210590;28;20216;-59
2022/06/21 02:36:27;;;;;;;2.92;2.40;;;15.10;99.90;;;15.65;66.85;97791.06;5213735;28;20225;-60
2022/06/21 02:39:06;;;;;;;2.50;2.40;;;14.90;99.90;;;15.60;68.13;97791.72;5217817;28;20303;-59
2022/06/21 02:41:43;;;;;;;2.65;2.45;;;14.90;99.90;;;15.58;67.90;97789.06;5215314;28;20194;-60
2022/06/21 02:44:22;;;;;;;4.10;2.65;;;14.90;99.90;;;15.60;68.18;97792.59;5213224;28;20686;-60
2022/06/21 02:47:02;;;;;;;2.58;2.38;;;15.00;99.90;;;15.55;68.32;97788.97;5220864;28;20240;-60
2022/06/21 02:49:41;;;;;;;2.90;2.70;;;14.90;99.90;;;15.54;68.83;97790.66;5216832;28;20601;-60
2022/06/21 02:52:22;;;;;;;3.25;2.95;;;14.90;99.90;;;15.51;65.29;97792.25;5216603;28;20678;-60
2022/06/21 02:55:03;;;;;;;3.78;3.00;;;14.90;99.90;;;15.56;67.75;97801.00;5215185;28;20225;-60
2022/06/21 02:57:43;;;;;;;3.92;2.65;;;14.90;99.90;;;15.52;67.34;97789.72;5210092;28;20220;-60
2022/06/21 03:00:19;;;;;;;2.53;2.33;;;14.80;99.90;;;15.48;66.59;97792.13;5213302;28;20245;-60
2022/06/21 03:02:54;;;;;;;2.83;2.63;;;14.80;99.90;;;15.48;67.43;97795.59;5217325;28;20196;-60
2022/06/21 03:05:29;;;;;;;3.22;2.92;;;14.80;99.90;;;15.43;66.78;97789.41;5216781;28;20204;-59
2022/06/21 03:08:05;;;;;;;2.90;2.70;;;14.80;99.90;;;15.41;67.67;97785.00;5215586;28;20274;-60
2022/06/21 03:10:43;;;;;;;3.13;2.92;;;14.70;99.90;;;15.38;68.23;97795.19;5209781;28;20239;-60
2022/06/21 03:13:21;;;;;;;3.63;3.13;;;14.60;99.90;;;15.26;69.26;97801.66;5211213;28;20252;-60
2022/06/21 03:16:00;;;;;;;3.05;2.78;;;14.60;99.90;;;15.19;70.87;97801.34;5222017;28;20193;-60
2022/06/21 03:18:40;;;;;;;3.08;2.80;;;14.50;99.90;;;15.09;69.27;97798.44;5211072;28;20217;-60
2022/06/21 03:21:15;;;;;;;3.17;2.92;;;14.30;99.90;;;14.92;70.55;97799.47;5214905;28;20196;-60
2022/06/21 03:23:48;;;;;;;3.85;3.50;;;14.10;99.90;;;14.74;71.63;97801.34;5217230;28;20274;-60
2022/06/21 03:26:22;;;;;;;4.25;3.20;;;14.10;99.90;;;14.51;70.61;97790.97;5214516;28;20233;-59
2022/06/21 03:28:55;;;;;;;3.60;3.30;;;13.90;99.90;;;14.66;72.19;97779.56;5218754;28;20216;-60
2022/06/21 03:31:33;;;;;;;3.65;3.40;;;14.00;99.90;;;14.73;70.90;97777.28;5217825;28;20303;-60
2022/06/21 03:34:10;;;;;;;3.70;3.40;;;14.10;99.90;;;14.79;71.15;97779.22;5216583;28;20573;-60
2022/06/21 03:36:44;;;;;;;3.42;3.22;;;14.20;99.90;;;14.85;69.52;97762.34;5220701;28;20200;-60
2022/06/21 03:39:21;;;;;;;3.97;3.65;;;14.20;99.90;;;14.72;69.25;97770.38;5214475;28;20220;-59
2022/06/21 03:41:53;;;;;;;3.50;3.30;;;14.00;99.90;;;14.65;69.10;97768.41;5219250;28;20598;-60
2022/06/21 03:44:31;;;;;;;3.50;3.20;;;14.00;99.90;;;14.53;70.36;97770.47;5214101;28;20205;-59
2022/06/21 03:47:09;;;;;;;3.50;3.20;;;13.80;99.90;;;14.53;70.54;97773.03;5212997;28;20647;-60
2022/06/21 03:49:50;;;;;;;3.85;3.55;;;13.90;99.90;;;14.62;71.88;97768.25;5216123;28;20306;-60
2022/06/21 03:52:43;;;;;;;3.70;3.40;;;14.10;99.90;;;14.65;71.12;97763.25;5225183;28;20236;-59
2022/06/21 03:55:31;;;;;;;4.70;3.42;;;14.10;99.90;;;14.65;71.15;97768.41;5227141;28;20201;-60
2022/06/21 03:58:11;;;;;;;3.53;3.28;;;14.00;99.90;;;14.72;70.59;97767.81;5222930;28;20245;-60
2022/06/21 04:00:50;;;;;;;4.25;3.42;;;14.10;99.90;;;14.75;71.61;97767.06;5223332;28;20190;-60
2022/06/21 04:03:28;;;;;;;3.72;3.40;;;14.00;99.90;;;14.58;69.07;97764.69;5221358;28;20201;-59
2022/06/21 04:06:08;;;;;;;3.35;3.03;;;13.90;99.90;;;14.52;70.56;97761.00;5221416;28;20258;-60
2022/06/21 04:08:45;;;;;;;4.38;3.85;;;13.80;99.90;;;14.60;70.20;97759.63;5220006;28;20263;-60
2022/06/21 04:11:28;;;;;;;3.85;3.30;;;14.00;99.90;;;14.72;69.61;97770.38;5220281;28;20213;-60
2022/06/21 04:14:11;;;;;;;3.55;3.25;;;14.10;99.90;;;14.72;69.05;97778.09;5219945;28;20276;-58
2022/06/21 04:16:59;;;;;;;3.92;3.63;;;14.10;99.90;;;14.74;68.53;97768.75;5224274;28;20557;-59
2022/06/21 04:19:38;;;;;;;3.45;3.22;;;14.20;99.90;;;14.81;69.23;97759.56;5222336;28;20225;-60
2022/06/21 04:22:20;;;;;;;3.90;3.60;;;14.20;99.90;;;14.87;67.95;97770.97;5219978;28;20274;-59
2022/06/21 04:25:03;;;;;;;4.13;3.60;;;14.20;99.90;;;14.95;70.78;97763.56;5226894;28;20285;-58
2022/06/21 04:27:44;;;;;;;4.55;3.40;;;14.30;99.90;;;14.95;68.33;97767.84;5217643;28;20198;-58
2022/06/21 04:30:25;;;;;;;4.57;3.65;;;14.30;99.90;;;14.95;69.34;97778.13;5222957;28;20236;-59
2022/06/21 04:33:06;;;;;;;3.47;3.17;;;14.40;99.90;;;15.09;67.44;97776.97;5224417;28;20239;-59
2022/06/21 04:35:47;;;;;;;4.18;3.72;;;14.30;99.90;;;14.99;68.04;97769.69;5223292;28;20202;-59
2022/06/21 04:38:28;;;;;;;3.60;3.30;;;14.40;99.90;;;15.12;68.89;97771.06;5223669;28;20213;-59
2022/06/21 04:41:08;;;;;;;3.22;2.92;;;14.50;99.90;;;15.35;69.06;97754.75;5217991;28;20247;-58
2022/06/21 04:43:47;;;;;;;3.78;3.38;;;14.70;99.90;;;15.60;67.13;97760.81;5218400;28;20685;-59
2022/06/21 04:46:26;;;;;;;4.85;3.05;;;14.90;99.90;;;15.97;65.68;97768.16;5227175;28;20193;-59
2022/06/21 04:49:10;;;;;;;3.50;3.20;;;15.40;99.90;;;16.66;63.35;97763.56;5227826;28;20209;-60
2022/06/21 04:51:50;;;;;;;3.50;3.03;;;16.10;99.90;;;17.36;60.87;97757.91;5219981;28;20268;-60
2022/06/21 04:54:28;;;;;;;3.97;3.10;;;16.70;99.20;;;17.87;57.57;97752.47;5209975;28;20197;-60
2022/06/21 04:57:08;;;;;;;3.38;3.08;;;17.30;97.30;;;18.40;57.17;97756.44;5219542;28;20235;-60
2022/06/21 04:59:46;;;;;;;3.38;3.00;;;17.70;97.30;;;18.86;54.87;97743.72;5216600;28;20225;-60
2022/06/21 05:02:24;;;;;;;3.53;2.90;;;18.10;95.90;;;19.51;53.77;97740.75;5216032;28;20580;-60
2022/06/21 05:05:03;;;;;;;3.80;3.40;;;18.50;95.80;;;19.57;52.17;97753.84;5218970;28;20202;-60
2022/06/21 05:07:49;;;;;;;3.00;2.75;;;18.80;94.50;;;19.86;51.66;97754.47;5220054;28;20267;-59
2022/06/21 05:10:28;;;;;;;3.70;3.00;;;18.70;94.20;;;19.94;50.47;97751.97;5212430;28;20229;-57
2022/06/21 05:13:06;;;;;;;4.57;3.40;;;18.90;93.60;;;20.09;50.16;97752.28;5225275;28;20266;-58
2022/06/21 05:15:42;;;;;;;3.53;3.22;;;18.80;93.60;;;20.45;48.43;97749.41;5218823;28;20661;-58
2022/06/21 05:18:23;;;;;;;3.20;2.90;;;19.10;92.30;;;20.40;48.06;97747.59;5222637;28;20332;-58
2022/06/21 05:21:02;;;;;;;3.28;2.88;;;19.10;92.10;;;20.30;47.25;97753.50;5218449;28;20260;-58
2022/06/21 05:23:35;;;;;;;3.28;2.85;;;18.90;91.60;;;20.02;48.71;97743.50;5223061;28;20201;-57
2022/06/21 05:26:19;;;;;;;4.50;3.08;;;18.70;92.50;;;20.03;49.18;97747.00;5219604;28;20741;-57
2022/06/21 05:28:59;;;;;;;4.03;3.05;;;18.60;92.60;;;20.12;49.29;97754.06;5215804;28;20249;-59
2022/06/21 05:31:38;;;;;;;3.95;3.10;;;18.70;93.40;;;20.08;49.03;97754.84;5212804;28;20255;-54
2022/06/21 05:34:17;;;;;;;5.63;2.97;;;18.60;92.30;;;20.28;49.33;97753.47;5211416;28;20185;-58
2022/06/21 05:36:58;;;;;;;3.08;2.78;;;18.80;93.00;;;20.08;49.26;97762.63;5218974;28;20250;-58
2022/06/21 05:39:43;;;;;;;4.70;2.80;;;18.70;92.80;;;20.22;49.68;97756.81;5219399;28;20283;-58
2022/06/21 05:42:22;;;;;;;3.90;2.78;;;18.80;93.00;;;20.24;50.23;97765.50;5215894;28;20198;-57
2022/06/21 05:45:04;;;;;;;3.47;2.80;;;19.10;93.00;;;20.38;49.25;97755.38;5218388;28;20197;-56
2022/06/21 05:47:43;;;;;;;3.35;2.63;;;19.10;92.30;;;20.79;48.41;97749.09;5219805;28;20186;-57
2022/06/21 05:50:20;;;;;;;3.05;2.70;;;19.30;92.40;;;21.06;48.17;97739.13;5215695;28;20221;-58
2022/06/21 05:52:59;;;;;;;2.60;2.40;;;19.70;92.20;;;21.42;47.28;97744.81;5219460;28;20210;-57
2022/06/21 05:55:38;;;;;;;3.28;2.80;;;20.20;91.40;;;21.58;46.18;97738.94;5214787;28;20198;-58
2022/06/21 05:58:19;;;;;;;4.15;3.08;;;20.50;90.50;;;21.65;44.09;97742.47;5209909;28;20715;-58
2022/06/21 06:00:58;;;;;;;3.08;2.67;;;20.60;88.50;;;22.09;43.50;97742.94;5213638;28;20252;-58
2022/06/21 06:03:38;;;;;;;2.92;2.67;;;20.40;88.60;;;22.27;43.85;97743.13;5220092;28;20236;-58
2022/06/21 06:06:15;;;;;;;4.30;2.80;;;20.70;89.30;;;22.78;42.25;97730.50;5214751;28;20201;-57
2022/06/21 06:08:52;;;;;;;2.67;2.40;;;20.90;87.50;;;22.99;42.05;97731.53;5222766;28;20272;-58
2022/06/21 06:14:21;;;;;;;3.25;2.80;;;21.80;85.00;;;23.94;40.42;97737.16;5212289;28;20226;-58
2022/06/21 06:16:57;;;;;;;2.72;2.53;;;22.20;84.10;;;23.96;39.85;97723.22;5222839;28;20259;-59
2022/06/21 06:19:35;;;;;;;2.78;2.58;;;22.20;83.00;;;24.49;37.38;97732.00;5221070;28;20219;-59
2022/06/21 06:22:20;;;;;;;3.25;2.53;;;22.60;80.20;;;24.14;38.22;97740.66;5218609;28;20693;-59
2022/06/21 06:25:00;;;;;;;4.10;2.60;;;22.80;79.60;;;24.51;36.83;97745.94;5218230;28;20292;-58
2022/06/21 06:27:45;;;;;;;3.58;2.38;;;22.70;78.40;;;24.34;35.81;97745.91;5215820;28;20202;-58
2022/06/21 06:30:25;;;;;;;2.67;2.42;;;22.30;76.70;;;23.66;38.08;97742.25;5208202;28;20433;-57
2022/06/21 06:33:10;;;;;;;4.22;2.35;;;21.70;79.80;;;22.93;39.89;97746.25;5220494;28;20225;-58
2022/06/21 06:35:44;;;;;;;2.80;2.60;;;21.40;80.70;;;22.90;39.77;97746.22;5218686;28;20197;-58
2022/06/21 06:38:18;;;;;;;5.25;2.38;;;21.40;81.40;;;22.70;40.68;97753.91;5218820;28;20260;-58
2022/06/21 06:40:58;;;;;;;3.05;2.38;;;21.10;82.10;;;22.62;40.74;97765.13;5217288;28;20252;-58
2022/06/21 06:43:39;;;;;;;3.65;2.67;;;21.00;82.60;;;22.65;39.98;97765.16;5207220;28;20225;-57
2022/06/21 06:46:27;;;;;;;2.72;2.53;;;21.00;81.20;;;23.06;39.89;97756.75;5214590;28;20533;-56
2022/06/21 06:49:19;;;;;;;3.33;2.28;;;21.40;81.40;;;23.82;39.06;97746.69;5217811;28;20245;-59
2022/06/21 06:52:03;;;;;;;2.67;2.15;;;22.10;80.80;;;23.95;37.10;97751.94;5218162;28;20592;-55
2022/06/21 06:54:45;;;;;;;2.72;2.20;;;22.50;76.80;;;24.78;37.43;97757.25;5218783;28;20190;-59
2022/06/21 06:57:25;;;;;;;2.33;2.13;;;23.10;77.80;;;25.08;36.52;97762.44;5207696;28;20260;-57
2022/06/21 07:00:00;;;;;;;2.88;2.35;;;23.90;76.00;;;25.87;34.00;97754.34;5211473;28;20262;-59
2022/06/21 07:02:39;;;;;;;3.08;1.95;;;24.30;73.10;;;26.04;32.50;97750.75;5220340;28;20223;-59
2022/06/21 07:05:19;;;;;;;2.70;2.20;;;24.20;70.30;;;26.22;32.88;97736.66;5214750;28;20608;-59
2022/06/21 07:07:55;;;;;;;2.35;2.08;;;24.10;71.40;;;26.31;33.24;97735.72;5222449;28;20755;-60
2022/06/21 07:10:29;;;;;;;4.97;2.30;;;24.30;71.50;;;26.64;33.99;97744.22;5215882;28;20689;-60
2022/06/21 07:13:02;;;;;;;3.35;1.85;;;24.90;72.70;;;26.83;32.50;97740.53;5214521;28;20213;-60
2022/06/21 07:15:39;;;;;;;2.58;1.80;;;25.00;70.10;;;27.63;31.80;97742.31;5221225;28;20197;-60
2022/06/21 07:18:20;;;;;;;3.88;2.17;;;25.60;70.10;;;27.38;31.27;97737.34;5213127;28;20299;-60
2022/06/21 07:20:54;;;;;;;2.63;1.80;;;25.60;68.40;;;27.97;30.42;97747.16;5217420;28;20262;-61
2022/06/21 07:23:30;;;;;;;2.08;1.80;;;25.70;68.10;;;28.01;29.77;97743.56;5218527;28;20266;-60
2022/06/21 07:26:11;;;;;;;1.73;1.63;;;25.90;65.80;;;27.78;30.11;97749.97;5216975;28;20193;-60
2022/06/21 07:28:49;;;;;;;2.95;2.17;;;25.90;65.50;;;27.11;31.17;97750.78;5213373;28;20251;-62
2022/06/21 07:31:29;;;;;;;4.13;1.85;;;25.50;66.60;;;27.53;30.19;97759.09;5222000;28;20189;-61
2022/06/21 07:34:09;;;;;;;3.10;1.98;;;25.60;66.30;;;27.31;31.63;97759.31;5217757;28;20273;-62
2022/06/21 07:36:50;;;;;;;4.30;2.10;;;25.50;68.20;;;27.46;29.79;97753.00;5217950;28;20224;-61
2022/06/21 07:39:29;;;;;;;2.30;2.00;;;25.30;65.30;;;27.27;30.40;97760.25;5214096;28;20249;-60
2022/06/21 07:42:08;;;;;;;6.97;2.05;;;25.10;65.90;;;27.83;30.32;97773.59;5213596;28;20255;-61
2022/06/21 07:44:46;;;;;;;3.00;1.70;;;25.50;66.90;;;27.20;30.79;97771.69;5216697;28;20246;-61
2022/06/21 07:47:27;;;;;;;2.58;2.03;;;25.50;66.50;;;27.40;30.25;97758.34;5218887;28;20487;-61
2022/06/21 07:50:09;;;;;;;2.75;2.10;;;25.30;66.10;;;27.38;31.48;97768.84;5220810;28;20205;-59
2022/06/21 07:52:51;;;;;;;3.22;2.15;;;25.40;67.80;;;27.14;30.99;97762.09;5213377;28;20229;-59
2022/06/21 07:55:31;;;;;;;2.65;1.85;;;25.40;65.20;;;27.39;31.09;97765.34;5218977;28;20250;-61
2022/06/21 07:58:12;;;;;;;2.00;1.85;;;25.70;65.90;;;27.77;29.72;97765.78;5209128;28;20216;-60
2022/06/21 08:06:53;;;;;;;2.90;1.77;;;25.60;66.90;;;27.98;29.36;97752.34;5217762;28;20197;-61
2022/06/21 08:09:35;;;;;;;2.22;1.70;;;26.30;63.40;;;27.88;29.09;97742.88;5215908;28;20231;-60
2022/06/21 08:12:11;;;;;;;3.25;2.15;;;26.10;63.00;;;27.16;30.80;97735.88;5214219;28;20197;-61
2022/06/21 08:14:44;;;;;;;3.90;2.40;;;25.20;65.60;;;26.24;33.42;97734.00;5210744;28;20626;-60
2022/06/21 08:17:29;;;;;;;3.45;2.20;;;24.70;69.70;;;26.67;32.57;97728.44;5224156;28;20204;-60
2022/06/21 08:20:10;;;;;;;2.67;2.00;;;24.90;67.60;;;26.91;32.82;97730.84;5214391;28;20217;-59
2022/06/21 08:22:49;;;;;;;2.83;2.08;;;25.10;69.30;;;27.35;31.72;97724.25;5221155;28;20197;-60
2022/06/21 08:25:32;;;;;;;4.47;2.10;;;25.80;65.80;;;27.52;31.35;97720.56;5219823;28;20247;-58
2022/06/21 08:28:13;;;;;;;3.15;2.38;;;25.70;66.70;;;27.44;31.18;97720.66;5215466;28;20217;-60
2022/06/21 08:30:51;;;;;;;3.35;1.77;;;26.00;65.50;;;27.25;32.63;97716.53;5213920;28;20200;-58
2022/06/21 08:33:31;;;;;;;2.10;1.90;;;25.60;68.00;;;27.21;33.26;97704.31;5217924;28;20205;-59
2022/06/21 08:36:13;;;;;;;3.83;2.28;;;25.80;69.00;;;26.91;32.55;97709.84;5217861;28;20223;-59
2022/06/21 08:38:55;;;;;;;3.30;2.10;;;25.60;66.60;;;26.55;33.84;97703.22;5221247;28;20220;-59
2022/06/21 08:42:04;;;;;;;2.45;2.20;;;25.10;69.00;;;26.65;33.46;97688.28;5221212;28;20723;-57
2022/06/21 08:45:42;;;;;;;2.25;2.00;;;25.10;69.30;;;26.14;34.64;97690.44;5222982;28;20624;-59
2022/06/21 08:49:04;;;;;;;2.88;2.08;;;24.80;70.10;;;26.04;33.74;97687.00;5183139;28;20483;-59
2022/06/21 08:52:27;;;;;;;4.28;2.40;;;24.70;68.80;;;25.71;35.10;97674.97;5216943;28;20194;-59
2022/06/21 08:55:15;;;;;;;2.70;2.50;;;24.40;70.80;;;25.40;35.84;97669.91;5200960;28;20235;-59
2022/06/21 08:58:06;;;;;;;4.15;2.50;;;24.20;71.60;;;25.15;36.87;97672.66;5210658;28;20229;-59
2022/06/21 09:00:47;;;;;;;2.63;2.40;;;24.10;72.50;;;25.37;36.16;97675.16;5213561;28;20266;-58
2022/06/21 09:03:43;;;;;;;4.18;2.63;;;24.20;71.50;;;24.98;37.30;97674.41;5215826;28;20186;-60
2022/06/21 09:06:24;;;;;;;2.83;2.40;;;24.00;73.00;;;25.37;36.56;97677.78;5223288;28;20233;-59
2022/06/21 09:09:20;;;;;;;3.72;2.50;;;24.20;72.00;;;24.60;37.74;97675.34;5219742;28;20229;-59
2022/06/21 09:12:08;;;;;;;2.50;2.30;;;23.60;72.90;;;24.33;37.77;97680.59;5212490;28;20299;-58
2022/06/21 09:15:12;;;;;;;2.67;2.28;;;23.40;73.60;;;24.26;39.04;97698.88;5219477;28;20209;-61
2022/06/21 09:18:02;;;;;;;3.05;2.40;;;23.10;75.80;;;24.22;38.89;97694.53;5217732;28;20221;-61
2022/06/21 09:20:44;;;;;;;3.97;2.38;;;23.20;75.00;;;24.28;39.18;97677.97;5219716;28;20193;-61
2022/06/21 09:23:57;;;;;;;2.60;2.40;;;23.10;76.70;;;24.28;40.01;97657.09;5219091;28;20713;-60
2022/06/21 09:26:41;;;;;;;2.83;2.58;;;23.20;76.70;;;24.21;38.93;97637.06;5214787;28;20628;-61
2022/06/21 09:29:26;;;;;;;3.55;2.65;;;23.20;75.50;;;23.98;39.61;97650.09;5209558;28;20217;-61
2022/06/21 09:32:19;;;;;;;2.60;2.40;;;22.90;76.10;;;23.92;39.80;97674.50;5219784;28;20211;-60
2022/06/21 09:35:17;;;;;;;2.65;2.45;;;22.80;76.20;;;23.58;40.67;97670.94;5219905;28;20260;-59
2022/06/21 09:38:07;;;;;;;2.88;2.40;;;22.70;77.60;;;23.67;40.74;97657.88;5219368;28;20228;-59
2022/06/21 09:40:50;;;;;;;2.92;2.67;;;22.80;78.00;;;24.25;40.74;97657.09;5222255;28;20225;-59
2022/06/21 09:43:31;;;;;;;2.65;2.45;;;23.40;77.00;;;24.80;39.55;97656.16;5212863;28;20193;-59
2022/06/21 09:46:18;;;;;;;3.05;2.58;;;24.00;76.60;;;24.98;38.94;97645.66;5221010;28;20666;-58
2022/06/21 09:49:03;;;;;;;2.65;2.45;;;24.20;74.60;;;25.37;37.49;97652.47;5218555;28;20220;-59
2022/06/21 09:51:48;;;;;;;2.63;2.42;;;24.50;73.60;;;25.45;37.18;97651.56;5219529;28;20721;-59
2022/06/21 09:54:33;;;;;;;2.67;2.28;;;24.60;73.80;;;25.47;38.38;97655.03;5211791;28;20267;-59
2022/06/21 09:57:20;;;;;;;4.25;2.70;;;24.60;74.40;;;25.58;38.02;97647.97;5210688;28;20278;-59
2022/06/21 10:00:04;;;;;;;3.58;2.45;;;24.60;74.80;;;25.73;38.08;97653.16;5214885;28;20224;-59
2022/06/21 10:02:58;;;;;;;3.03;2.70;;;24.80;74.80;;;25.78;37.64;97660.94;5217701;28;20239;-59
2022/06/21 10:05:38;;;;;;;3.10;2.50;;;24.80;74.30;;;25.98;37.62;97666.97;5218761;28;20197;-59
2022/06/21 10:08:25;;;;;;;3.33;2.60;;;24.90;74.50;;;26.16;37.20;97678.19;5217990;28;20228;-59
2022/06/21 10:11:11;;;;;;;3.90;2.63;;;25.10;72.80;;;26.40;37.03;97677.97;5215648;28;20240;-58
2022/06/21 10:14:28;;;;;;;2.60;2.40;;;25.40;73.20;;;26.59;36.40;97667.38;5219329;28;20620;-59
2022/06/21 10:17:21;;;;;;;3.33;2.42;;;25.60;72.00;;;26.69;36.84;97669.00;5195214;28;20233;-59
2022/06/21 10:20:35;;;;;;;2.63;2.30;;;25.80;72.90;;;26.65;35.97;97662.91;5215669;28;20252;-59
2022/06/21 10:23:29;;;;;;;2.80;2.60;;;25.60;70.90;;;26.42;36.08;97660.50;5218936;28;20648;-58
2022/06/21 10:26:19;;;;;;;3.30;2.28;;;25.40;71.40;;;26.51;36.64;97663.03;5226186;28;20197;-59
2022/06/21 10:29:25;;;;;;;3.20;2.78;;;25.50;73.10;;;26.73;37.56;97668.09;5214377;28;20268;-59
2022/06/21 10:32:19;;;;;;;3.00;2.58;;;25.70;74.40;;;27.07;37.95;97665.97;5217164;28;20527;-58
2022/06/21 10:35:21;;;;;;;4.10;2.72;;;26.20;74.70;;;26.89;36.27;97651.28;5215234;28;20696;-61
2022/06/21 10:38:14;;;;;;;2.92;2.63;;;26.10;71.20;;;26.82;37.13;97644.38;5213720;28;20247;-61
2022/06/21 10:41:02;;;;;;;3.58;2.55;;;25.90;72.50;;;26.89;37.08;97640.78;5206387;28;20221;-60
2022/06/21 10:44:17;;;;;;;3.10;2.80;;;26.00;72.90;;;26.55;37.61;97642.91;5214314;28;20231;-61
2022/06/21 10:47:00;;;;;;;3.20;2.90;;;25.70;73.00;;;26.47;38.40;97650.84;5219132;28;20224;-61
2022/06/21 10:50:03;;;;;;;3.10;2.70;;;25.70;74.90;;;26.41;38.04;97637.78;5217969;28;20275;-60
2022/06/21 10:53:15;;;;;;;3.50;2.88;;;25.60;74.30;;;26.52;39.50;97627.22;5215971;28;20205;-61
2022/06/21 10:59:23;;;;;;;3.47;3.17;;;25.70;75.70;;;26.30;40.52;97613.44;5217113;28;20743;-61
2022/06/21 11:02:09;;;;;;;2.88;2.67;;;25.60;77.80;;;26.37;39.37;97603.75;5222617;28;20223;-61
2022/06/21 11:04:57;;;;;;;4.15;3.20;;;25.50;77.00;;;26.41;39.97;97590.59;5217711;28;20668;-61
2022/06/21 11:07:42;;;;;;;3.30;3.10;;;25.50;76.70;;;26.21;40.98;97585.56;5218095;28;20251;-60
2022/06/21 11:10:22;;;;;;;4.45;3.22;;;25.40;78.20;;;26.13;40.75;97576.91;5212869;28;20198;-61
2022/06/21 11:13:04;;;;;;;3.42;2.80;;;25.30;77.90;;;26.29;41.67;97574.97;5213675;28;20219;-60
2022/06/21 11:15:55;;;;;;;4.30;3.65;;;25.40;79.10;;;26.38;40.52;97564.41;5223951;28;20210;-61
2022/06/21 11:18:48;;;;;;;3.70;3.40;;;25.40;77.80;;;26.22;40.72;97568.94;5209102;28;20225;-60
2022/06/21 11:21:43;;;;;;;3.80;2.88;;;25.30;78.00;;;26.21;42.00;97566.31;5219079;28;20670;-61
2022/06/21 11:24:35;;;;;;;5.00;3.10;;;25.40;80.10;;;26.26;42.34;97554.91;5211842;28;20225;-61
2022/06/21 11:27:17;;;;;;;3.92;3.60;;;25.60;80.50;;;26.29;41.12;97554.00;5210608;28;20200;-61
2022/06/21 11:30:01;;;;;;;3.80;3.50;;;25.60;78.60;;;26.34;42.24;97552.22;5213516;28;20659;-61
2022/06/21 11:32:43;;;;;;;5.30;3.50;;;25.60;80.10;;;26.40;42.08;97565.25;5218625;28;20197;-61
2022/06/21 11:35:28;;;;;;;3.75;3.45;;;25.70;79.30;;;26.49;41.81;97557.28;5217517;28;20254;-61